You are not logged in, Click here to log in
ICAO: EHAM Country: 荷蘭首都阿姆斯特丹
Latitude: 52.3105 Longitude: 4.76827
Total Arrivals: 24 Total Departures: 27
Latest Arrival: OS373 (LOWW-EHAM)Jason. Li Latest Departure: KL1227 (EHAM-LFPG)ALAN. LIU
Scenery:
METAR : EHAM 180655Z 19010KT 150V210 9999 FEW008 SCT032 16/15 Q1003 NOSIG

阿姆斯特丹史基浦機場AMS